createdAt,value
2018-05-12T00:00:36.020Z,15.40
2018-05-12T00:03:03.492Z,15.40
2018-05-12T00:05:30.929Z,15.50
2018-05-12T00:07:58.368Z,15.50
2018-05-12T00:10:26.588Z,15.50
2018-05-12T00:12:54.045Z,15.50
2018-05-12T00:15:21.484Z,15.60
2018-05-12T00:17:48.926Z,15.60
2018-05-12T00:20:16.414Z,15.60
2018-05-12T00:22:43.855Z,15.60
2018-05-12T00:25:11.296Z,15.50
2018-05-12T00:27:38.734Z,15.40
2018-05-12T00:30:06.932Z,15.20
2018-05-12T00:32:34.361Z,15.20
2018-05-12T00:35:02.589Z,15.20
2018-05-12T00:37:30.021Z,15.20
2018-05-12T00:39:57.468Z,15.20
2018-05-12T00:42:24.908Z,15.20
2018-05-12T00:44:53.116Z,15.20
2018-05-12T00:47:20.588Z,15.10
2018-05-12T00:49:48.040Z,15.20
2018-05-12T00:52:15.472Z,15.20
2018-05-12T00:54:42.979Z,15.20
2018-05-12T00:57:10.427Z,15.20
2018-05-12T00:59:37.960Z,15.10
2018-05-12T01:02:05.377Z,15.10
2018-05-12T01:04:33.594Z,15.20
2018-05-12T01:07:01.022Z,15.10
2018-05-12T01:09:28.464Z,15.20
2018-05-12T01:11:56.685Z,15.20
2018-05-12T01:14:24.172Z,15.20
2018-05-12T01:16:51.708Z,15.20
2018-05-12T01:19:19.245Z,15.20
2018-05-12T01:21:46.668Z,15.20
2018-05-12T01:24:14.892Z,15.10
2018-05-12T01:26:42.353Z,15.10
2018-05-12T01:29:09.788Z,15.10
2018-05-12T01:31:37.268Z,15.10
2018-05-12T01:34:04.697Z,15.10
2018-05-12T01:36:32.128Z,15.10
2018-05-12T01:38:59.556Z,15.20
2018-05-12T01:41:26.995Z,15.40
2018-05-12T01:43:54.423Z,15.40
2018-05-12T01:46:21.881Z,15.40
2018-05-12T01:48:49.304Z,15.50
2018-05-12T01:51:17.500Z,15.70
2018-05-12T01:53:44.946Z,15.60
2018-05-12T01:56:12.463Z,15.70
2018-05-12T01:58:39.892Z,15.70
2018-05-12T02:01:07.337Z,15.70
2018-05-12T02:03:34.756Z,15.70
2018-05-12T02:06:02.976Z,15.70
2018-05-12T02:08:30.408Z,15.60
2018-05-12T02:10:57.836Z,15.70
2018-05-12T02:13:26.152Z,15.70
2018-05-12T02:15:53.565Z,15.60
2018-05-12T02:18:21.773Z,15.70
2018-05-12T02:20:49.265Z,15.60
2018-05-12T02:23:16.700Z,15.60
2018-05-12T02:25:44.132Z,15.60
2018-05-12T02:28:11.644Z,15.70
2018-05-12T02:30:39.090Z,15.70
2018-05-12T02:33:06.546Z,15.70
2018-05-12T02:35:34.003Z,15.70
2018-05-12T02:38:01.442Z,15.80
2018-05-12T02:40:28.872Z,15.80
2018-05-12T02:42:56.300Z,15.80
2018-05-12T02:45:23.732Z,15.90
2018-05-12T02:47:51.176Z,15.80
2018-05-12T02:50:18.650Z,15.80
2018-05-12T02:52:46.075Z,15.70
2018-05-12T02:55:13.512Z,15.70
2018-05-12T02:57:40.969Z,15.70
2018-05-12T03:00:09.157Z,15.70
2018-05-12T03:02:36.657Z,15.70
2018-05-12T03:05:04.084Z,15.70
2018-05-12T03:07:31.516Z,15.70
2018-05-12T03:09:58.956Z,15.70
2018-05-12T03:12:27.148Z,15.70
2018-05-12T03:14:54.654Z,15.60
2018-05-12T03:17:22.092Z,15.70
2018-05-12T03:19:49.524Z,15.60
2018-05-12T03:22:16.988Z,15.60
2018-05-12T03:24:44.410Z,15.60
2018-05-12T03:27:12.620Z,15.70
2018-05-12T03:29:40.083Z,15.60
2018-05-12T03:32:07.523Z,15.60
2018-05-12T03:34:34.963Z,15.70
2018-05-12T03:37:02.446Z,15.70
2018-05-12T03:39:29.884Z,15.70
2018-05-12T03:41:57.345Z,15.70
2018-05-12T03:44:24.785Z,15.60
2018-05-12T03:46:52.995Z,15.80
2018-05-12T03:49:20.456Z,15.80
2018-05-12T03:51:47.905Z,15.80
2018-05-12T03:54:15.336Z,15.80
2018-05-12T03:56:42.781Z,15.80
2018-05-12T03:59:10.975Z,15.70
2018-05-12T04:01:38.419Z,15.70
2018-05-12T04:04:05.863Z,15.70
2018-05-12T04:06:46.053Z,15.70
2018-05-12T04:09:25.486Z,15.70
2018-05-12T04:12:05.043Z,15.70
2018-05-12T04:14:32.590Z,15.80
2018-05-12T04:17:00.016Z,15.70
2018-05-12T04:19:28.240Z,15.70
2018-05-12T04:21:55.699Z,15.70
2018-05-12T04:24:23.155Z,15.60
2018-05-12T04:26:50.601Z,15.60
2018-05-12T04:29:18.033Z,15.70
2018-05-12T04:31:45.488Z,15.70
2018-05-12T04:34:12.945Z,15.70
2018-05-12T04:36:40.376Z,15.70
2018-05-12T04:39:08.636Z,15.80
2018-05-12T04:41:36.072Z,15.80
2018-05-12T04:44:03.517Z,15.90
2018-05-12T04:46:30.976Z,16.00
2018-05-12T04:48:58.416Z,16.00
2018-05-12T04:51:25.872Z,15.90
2018-05-12T04:53:53.324Z,15.80
2018-05-12T04:56:20.766Z,15.70
2018-05-12T04:58:48.222Z,15.70
2018-05-12T05:01:15.656Z,15.80
2018-05-12T05:03:43.892Z,16.00
2018-05-12T05:06:11.325Z,16.00
2018-05-12T05:08:38.770Z,16.10
2018-05-12T05:11:06.264Z,16.00
2018-05-12T05:13:33.701Z,16.00
2018-05-12T05:16:01.148Z,16.00
2018-05-12T05:18:28.592Z,16.00
2018-05-12T05:20:56.065Z,16.00
2018-05-12T05:23:23.495Z,15.90
2018-05-12T05:25:50.932Z,15.90
2018-05-12T05:28:19.184Z,16.00
2018-05-12T05:30:46.741Z,15.90
2018-05-12T05:33:14.293Z,16.00
2018-05-12T05:35:41.733Z,16.10
2018-05-12T05:38:09.292Z,16.10
2018-05-12T05:40:36.764Z,16.20
2018-05-12T05:43:04.219Z,16.20
2018-05-12T05:45:31.684Z,16.20
2018-05-12T05:47:59.136Z,16.30
2018-05-12T05:50:26.617Z,16.30
2018-05-12T05:52:54.068Z,16.30
2018-05-12T05:55:22.277Z,16.20
2018-05-12T05:57:49.722Z,16.20
2018-05-12T06:00:18.030Z,16.20
2018-05-12T06:02:45.453Z,16.20
2018-05-12T06:05:13.682Z,16.40
2018-05-12T06:07:41.138Z,16.40
2018-05-12T06:10:08.576Z,16.50
2018-05-12T06:12:36.021Z,16.60
2018-05-12T06:15:03.471Z,16.60
2018-05-12T06:17:30.917Z,16.70
2018-05-12T06:19:58.423Z,16.80
2018-05-12T06:22:25.956Z,16.70
2018-05-12T06:24:53.391Z,16.70
2018-05-12T06:27:23.763Z,16.60
2018-05-12T06:29:51.173Z,16.60
2018-05-12T06:32:18.627Z,16.70
2018-05-12T06:34:46.063Z,16.80
2018-05-12T06:37:14.296Z,17.00
2018-05-12T06:39:41.741Z,17.00
2018-05-12T06:42:09.186Z,17.10
2018-05-12T06:44:36.676Z,17.40
2018-05-12T06:47:04.121Z,17.50
2018-05-12T06:49:31.564Z,17.50
2018-05-12T06:51:59.020Z,17.50
2018-05-12T06:54:26.456Z,17.70
2018-05-12T06:56:53.928Z,17.60
2018-05-12T06:59:21.361Z,17.60
2018-05-12T07:01:49.561Z,17.60
2018-05-12T07:04:16.996Z,17.60
2018-05-12T07:06:44.445Z,17.60
2018-05-12T07:09:12.669Z,17.60
2018-05-12T07:11:40.110Z,17.50
2018-05-12T07:14:07.572Z,17.70
2018-05-12T07:16:35.025Z,17.90
2018-05-12T07:19:02.468Z,18.00
2018-05-12T07:21:29.908Z,18.10
2018-05-12T07:23:57.364Z,18.40
2018-05-12T07:26:24.809Z,18.50
2018-05-12T07:28:53.037Z,18.60
2018-05-12T07:31:20.481Z,18.50
2018-05-12T07:33:47.944Z,18.50
2018-05-12T07:36:15.389Z,18.60
2018-05-12T07:38:42.880Z,18.60
2018-05-12T07:41:10.303Z,18.50
2018-05-12T07:43:37.757Z,18.40
2018-05-12T07:46:05.212Z,18.40
2018-05-12T07:48:32.670Z,18.50
2018-05-12T07:51:00.162Z,18.60
2018-05-12T07:53:27.620Z,18.50
2018-05-12T07:55:55.073Z,18.50
2018-05-12T07:58:22.527Z,18.50
2018-05-12T08:00:49.962Z,18.50
2018-05-12T08:03:17.423Z,18.50
2018-05-12T08:05:44.868Z,18.60
2018-05-12T08:08:12.309Z,18.60
2018-05-12T08:10:39.745Z,18.70
2018-05-12T08:13:07.954Z,19.00
2018-05-12T08:15:35.408Z,18.90
2018-05-12T08:18:02.883Z,18.90
2018-05-12T08:20:30.324Z,19.00
2018-05-12T08:22:57.878Z,19.00
2018-05-12T08:25:25.375Z,19.10
2018-05-12T08:27:52.892Z,19.10
2018-05-12T08:30:20.373Z,19.10
2018-05-12T08:32:47.837Z,19.20
2018-05-12T08:35:15.325Z,19.20
2018-05-12T08:37:43.543Z,19.40
2018-05-12T08:40:11.035Z,19.40
2018-05-12T08:42:40.000Z,19.40
2018-05-12T08:45:07.472Z,19.40
2018-05-12T08:47:35.005Z,19.70
2018-05-12T08:50:02.435Z,19.70
2018-05-12T08:52:30.621Z,19.90
2018-05-12T08:54:58.216Z,19.90
2018-05-12T08:57:25.677Z,20.10
2018-05-12T08:59:53.132Z,20.00
2018-05-12T09:02:20.673Z,20.00
2018-05-12T09:04:48.148Z,20.10
2018-05-12T09:07:15.683Z,20.20
2018-05-12T09:09:43.281Z,20.30
2018-05-12T09:12:10.729Z,20.40
2018-05-12T09:14:38.197Z,20.60
2018-05-12T09:17:05.654Z,20.70
2018-05-12T09:19:33.101Z,20.80
2018-05-12T09:22:00.674Z,20.90
2018-05-12T09:24:28.117Z,21.20
2018-05-12T09:26:55.736Z,21.30
2018-05-12T09:29:23.153Z,21.20
2018-05-12T09:31:51.411Z,21.30
2018-05-12T09:34:18.936Z,21.30
2018-05-12T09:36:46.377Z,21.50
2018-05-12T09:39:13.815Z,21.50
2018-05-12T09:41:41.295Z,21.70
2018-05-12T09:44:08.736Z,21.80
2018-05-12T09:46:36.206Z,21.90
2018-05-12T09:49:03.646Z,22.00
2018-05-12T09:52:35.724Z,22.00
2018-05-12T09:55:03.156Z,22.20
2018-05-12T09:57:30.596Z,22.30
2018-05-12T09:59:58.186Z,22.30
2018-05-12T10:02:25.805Z,22.60
2018-05-12T10:04:53.250Z,22.70
2018-05-12T10:07:20.729Z,22.80
2018-05-12T10:09:48.231Z,22.60
2018-05-12T10:12:16.453Z,22.50
2018-05-12T10:14:43.899Z,24.20
2018-05-12T10:17:11.365Z,22.70
2018-05-12T10:19:38.792Z,22.90
2018-05-12T10:22:06.268Z,22.90
2018-05-12T10:24:33.766Z,22.80
2018-05-12T10:27:01.212Z,22.60
2018-05-12T10:29:28.657Z,22.50
2018-05-12T10:31:56.080Z,22.30
2018-05-12T10:34:23.534Z,22.40
2018-05-12T10:36:50.971Z,22.40
2018-05-12T10:39:19.174Z,22.80
2018-05-12T10:41:46.627Z,22.80
2018-05-12T10:44:14.128Z,22.70
2018-05-12T10:46:41.588Z,22.60
2018-05-12T10:49:09.036Z,22.60
2018-05-12T10:51:36.518Z,22.80
2018-05-12T10:54:04.725Z,23.10
2018-05-12T10:56:32.156Z,23.00
2018-05-12T10:59:00.373Z,23.30
2018-05-12T11:01:27.818Z,23.20
2018-05-12T11:03:55.298Z,23.40
2018-05-12T11:06:22.728Z,23.60
2018-05-12T11:08:50.191Z,23.80
2018-05-12T11:11:17.626Z,23.80
2018-05-12T11:13:45.081Z,24.00
2018-05-12T11:16:12.689Z,24.00
2018-05-12T11:18:40.031Z,24.00
2018-05-12T11:21:07.461Z,24.00
2018-05-12T11:23:34.901Z,23.80
2018-05-12T11:26:03.105Z,23.30
2018-05-12T11:28:30.540Z,23.20
2018-05-12T11:30:57.992Z,23.30
2018-05-12T11:33:25.445Z,23.30
2018-05-12T11:35:52.926Z,23.30
2018-05-12T11:38:20.425Z,23.30
2018-05-12T11:40:47.874Z,23.20
2018-05-12T11:43:15.296Z,23.40
2018-05-12T11:45:42.754Z,23.50
2018-05-12T11:48:10.191Z,23.70
2018-05-12T11:50:37.696Z,23.60
2018-05-12T11:53:05.137Z,23.60
2018-05-12T11:55:32.577Z,23.90
2018-05-12T11:58:00.010Z,23.80
2018-05-12T12:00:27.490Z,23.70
2018-05-12T12:02:54.924Z,23.60
2018-05-12T12:05:22.360Z,23.50
2018-05-12T12:07:50.571Z,23.50
2018-05-12T12:10:18.033Z,23.50
2018-05-12T12:12:45.449Z,23.50
2018-05-12T12:15:13.668Z,23.80
2018-05-12T12:17:41.128Z,23.80
2018-05-12T12:20:08.586Z,23.80
2018-05-12T12:22:36.032Z,23.80
2018-05-12T12:25:03.465Z,24.00
2018-05-12T12:27:31.666Z,24.20
2018-05-12T12:29:59.098Z,24.10
2018-05-12T12:32:26.572Z,24.00
2018-05-12T12:34:54.033Z,23.90
2018-05-12T12:37:21.496Z,23.70
2018-05-12T12:39:48.960Z,23.70
2018-05-12T12:42:16.437Z,23.60
2018-05-12T12:44:43.870Z,23.90
2018-05-12T12:47:11.345Z,24.10
2018-05-12T12:49:38.801Z,24.10
2018-05-12T12:52:06.260Z,24.10
2018-05-12T12:54:33.709Z,24.20
2018-05-12T12:57:01.156Z,24.10
2018-05-12T12:59:28.595Z,24.20
2018-05-12T13:01:56.051Z,24.30
2018-05-12T13:04:23.483Z,24.40
2018-05-12T13:06:50.913Z,24.10
2018-05-12T13:09:19.143Z,24.00
2018-05-12T13:11:46.568Z,24.00
2018-05-12T13:14:14.004Z,24.10
2018-05-12T13:16:42.226Z,23.70
2018-05-12T13:19:09.712Z,23.60
2018-05-12T13:21:37.275Z,23.70
2018-05-12T13:24:04.714Z,23.70
2018-05-12T13:26:32.152Z,23.70
2018-05-12T13:28:59.602Z,23.70
2018-05-12T13:31:27.036Z,23.60
2018-05-12T13:33:54.516Z,23.60
2018-05-12T13:36:21.947Z,23.40
2018-05-12T13:38:50.172Z,23.40
2018-05-12T13:41:17.609Z,23.30
2018-05-12T13:43:45.089Z,23.40
2018-05-12T13:46:12.546Z,23.40
2018-05-12T13:48:40.013Z,23.30
2018-05-12T13:51:07.465Z,23.30
2018-05-12T13:53:34.894Z,23.50
2018-05-12T13:56:02.432Z,23.50
2018-05-12T13:58:29.814Z,23.60
2018-05-12T14:00:57.250Z,23.80
2018-05-12T14:03:24.692Z,23.90
2018-05-12T14:05:53.226Z,23.70
2018-05-12T14:08:20.793Z,23.60
2018-05-12T14:10:48.252Z,23.60
2018-05-12T14:13:15.764Z,23.60
2018-05-12T14:15:43.291Z,23.90
2018-05-12T14:18:11.490Z,24.20
2018-05-12T14:20:38.945Z,24.10
2018-05-12T14:23:06.395Z,24.30
2018-05-12T14:25:33.832Z,24.30
2018-05-12T14:28:02.049Z,24.40
2018-05-12T14:30:29.500Z,24.30
2018-05-12T14:32:56.974Z,24.30
2018-05-12T14:35:24.433Z,24.20
2018-05-12T14:37:51.893Z,24.20
2018-05-12T14:40:19.422Z,24.40
2018-05-12T14:42:46.979Z,24.40
2018-05-12T14:45:14.365Z,24.40
2018-05-12T14:47:41.800Z,24.50
2018-05-12T14:50:09.248Z,24.70
2018-05-12T14:52:36.701Z,24.90
2018-05-12T14:55:04.191Z,25.00
2018-05-12T14:57:31.628Z,24.90
2018-05-12T14:59:59.061Z,24.80
2018-05-12T15:02:26.572Z,25.00
2018-05-12T15:04:54.719Z,25.20
2018-05-12T15:07:22.181Z,25.20
2018-05-12T15:09:49.619Z,25.30
2018-05-12T15:12:17.080Z,25.60
2018-05-12T15:14:44.617Z,25.70
2018-05-12T15:17:12.009Z,25.70
2018-05-12T15:19:39.465Z,26.10
2018-05-12T15:22:06.912Z,26.10
2018-05-12T15:24:34.340Z,26.20
2018-05-12T15:27:01.780Z,26.10
2018-05-12T15:29:30.119Z,26.40
2018-05-12T15:31:57.579Z,26.30
2018-05-12T15:34:25.004Z,26.80
2018-05-12T15:36:52.442Z,27.40
2018-05-12T15:39:19.869Z,27.80
2018-05-12T15:41:48.076Z,27.30
2018-05-12T15:44:15.513Z,27.20
2018-05-12T15:46:43.725Z,27.00
2018-05-12T15:49:11.169Z,26.90
2018-05-12T15:51:38.621Z,26.70
2018-05-12T15:54:06.057Z,26.50
2018-05-12T15:56:33.559Z,26.40
2018-05-12T15:59:01.004Z,26.10
2018-05-12T16:01:28.462Z,26.30
2018-05-12T16:03:55.922Z,26.50
2018-05-12T16:06:23.353Z,26.60
2018-05-12T16:08:50.797Z,27.00
2018-05-12T16:11:18.998Z,26.90
2018-05-12T16:13:46.460Z,26.90
2018-05-12T16:16:13.927Z,26.20
2018-05-12T16:18:41.366Z,25.60
2018-05-12T16:21:08.857Z,25.10
2018-05-12T16:23:37.069Z,24.60
2018-05-12T16:26:05.281Z,24.30
2018-05-12T16:28:32.719Z,24.20
2018-05-12T16:31:00.160Z,23.90
2018-05-12T16:33:27.603Z,23.80
2018-05-12T16:35:55.796Z,23.60
2018-05-12T16:38:23.240Z,23.50
2018-05-12T16:40:51.445Z,23.50
2018-05-12T16:43:18.880Z,23.40
2018-05-12T16:45:46.336Z,23.30
2018-05-12T16:48:13.784Z,23.30
2018-05-12T16:50:42.154Z,23.30
2018-05-12T16:53:09.516Z,23.30
2018-05-12T16:55:37.024Z,23.40
2018-05-12T16:58:04.463Z,23.50
2018-05-12T17:00:31.901Z,23.50
2018-05-12T17:02:59.328Z,23.30
2018-05-12T17:05:27.534Z,23.00
2018-05-12T17:07:54.968Z,23.00
2018-05-12T17:10:22.486Z,23.00
2018-05-12T17:12:49.921Z,22.80
2018-05-12T17:15:17.348Z,22.50
2018-05-12T17:17:44.791Z,22.60
2018-05-12T17:20:12.998Z,23.40
2018-05-12T17:22:40.435Z,23.40
2018-05-12T17:25:07.898Z,23.90
2018-05-12T17:27:35.323Z,24.10
2018-05-12T17:30:03.540Z,24.20
2018-05-12T17:32:31.023Z,24.10
2018-05-12T17:34:58.517Z,24.10
2018-05-12T17:37:26.721Z,24.40
2018-05-12T17:39:54.162Z,24.30
2018-05-12T17:42:21.644Z,24.10
2018-05-12T17:44:49.085Z,23.90
2018-05-12T17:47:16.520Z,23.60
2018-05-12T17:49:43.969Z,23.20
2018-05-12T17:52:11.489Z,23.00
2018-05-12T17:57:17.261Z,22.20
2018-05-12T17:59:44.708Z,22.10
2018-05-12T18:02:12.173Z,21.80
2018-05-12T18:04:39.596Z,21.60
2018-05-12T18:07:07.059Z,21.30
2018-05-12T18:09:34.618Z,21.20
2018-05-12T18:12:02.040Z,21.10
2018-05-12T18:14:30.246Z,20.90
2018-05-12T18:16:58.436Z,20.80
2018-05-12T18:19:25.909Z,20.80
2018-05-12T18:21:53.355Z,20.70
2018-05-12T18:24:20.776Z,20.80
2018-05-12T18:26:48.252Z,20.70
2018-05-12T18:29:15.714Z,20.50
2018-05-12T18:31:43.207Z,20.40
2018-05-12T18:34:10.654Z,20.30
2018-05-12T18:36:38.110Z,20.20
2018-05-12T18:39:05.553Z,20.10
2018-05-12T18:41:33.045Z,20.00
2018-05-12T18:46:35.386Z,19.80
2018-05-12T18:49:02.869Z,19.70
2018-05-12T18:51:30.320Z,19.70
2018-05-12T18:53:57.763Z,19.50
2018-05-12T18:56:25.336Z,19.50
2018-05-12T18:58:52.793Z,19.40
2018-05-12T19:01:20.236Z,19.40
2018-05-12T19:03:47.687Z,19.30
2018-05-12T19:06:15.134Z,19.20
2018-05-12T19:08:42.582Z,19.00
2018-05-12T19:11:10.032Z,19.00
2018-05-12T19:13:37.706Z,18.80
2018-05-12T19:16:05.149Z,18.80
2018-05-12T19:18:33.365Z,21.50
2018-05-12T19:21:00.812Z,18.70
2018-05-12T19:23:28.265Z,18.60
2018-05-12T19:25:55.747Z,18.50
2018-05-12T19:28:23.191Z,18.50
2018-05-12T19:30:50.645Z,18.40
2018-05-12T19:33:18.095Z,18.30
2018-05-12T19:35:45.556Z,18.20
2018-05-12T19:38:13.093Z,18.20
2018-05-12T19:40:40.534Z,18.10
2018-05-12T19:43:07.959Z,18.10
2018-05-12T19:45:36.168Z,17.90
2018-05-12T19:48:03.601Z,17.90
2018-05-12T19:50:31.858Z,17.80
2018-05-12T19:53:00.081Z,17.80
2018-05-12T19:55:27.529Z,17.70
2018-05-12T19:57:55.040Z,17.70
2018-05-12T20:00:22.654Z,17.70
2018-05-12T20:02:50.092Z,17.60
2018-05-12T20:05:17.542Z,17.60
2018-05-12T20:07:45.815Z,17.50
2018-05-12T20:10:13.266Z,17.50
2018-05-12T20:12:41.593Z,17.30
2018-05-12T20:15:09.116Z,17.30
2018-05-12T20:17:36.564Z,17.30
2018-05-12T20:20:04.786Z,17.30
2018-05-12T20:22:32.348Z,17.20
2018-05-12T20:24:59.805Z,17.20
2018-05-12T20:27:27.240Z,17.20
2018-05-12T20:29:54.685Z,17.10
2018-05-12T20:32:22.177Z,17.10
2018-05-12T20:34:49.617Z,17.10
2018-05-12T20:37:17.113Z,17.10
2018-05-12T20:39:44.513Z,17.00
2018-05-12T20:42:11.947Z,17.00
2018-05-12T20:44:40.165Z,17.00
2018-05-12T20:47:07.706Z,16.90
2018-05-12T20:49:35.136Z,17.00
2018-05-12T20:52:02.586Z,16.90
2018-05-12T20:54:30.791Z,16.80
2018-05-12T20:56:58.273Z,16.80
2018-05-12T20:59:25.738Z,16.80
2018-05-12T21:01:53.310Z,16.90
2018-05-12T21:04:20.951Z,16.90
2018-05-12T21:06:48.430Z,16.80
2018-05-12T21:09:15.884Z,16.80
2018-05-12T21:11:43.329Z,16.80
2018-05-12T21:14:10.853Z,16.80
2018-05-12T21:16:38.235Z,16.70
2018-05-12T21:19:05.690Z,16.70
2018-05-12T21:21:33.129Z,16.70
2018-05-12T21:24:00.586Z,16.60
2018-05-12T21:26:28.041Z,16.60
2018-05-12T21:28:55.465Z,16.60
2018-05-12T21:31:22.913Z,16.70
2018-05-12T21:33:51.222Z,16.70
2018-05-12T21:36:18.658Z,16.60
2018-05-12T21:38:46.112Z,16.70
2018-05-12T21:41:13.552Z,16.70
2018-05-12T21:43:41.758Z,16.70
2018-05-12T21:46:09.303Z,16.60
2018-05-12T21:48:36.780Z,16.80
2018-05-12T21:51:04.217Z,16.80
2018-05-12T21:53:31.662Z,16.80
2018-05-12T21:55:59.892Z,16.70
2018-05-12T21:58:27.345Z,16.60
2018-05-12T22:00:54.885Z,16.70
2018-05-12T22:03:22.357Z,16.70
2018-05-12T22:05:49.821Z,16.60
2018-05-12T22:08:17.261Z,16.70
2018-05-12T22:10:44.715Z,16.70
2018-05-12T22:13:12.165Z,16.70
2018-05-12T22:15:39.731Z,16.80
2018-05-12T22:18:07.158Z,16.80
2018-05-12T22:20:35.364Z,16.90
2018-05-12T22:23:02.802Z,16.90
2018-05-12T22:25:30.248Z,17.00
2018-05-12T22:27:57.692Z,16.90
2018-05-12T22:30:25.965Z,16.90
2018-05-12T22:32:53.392Z,16.90
2018-05-12T22:35:20.831Z,16.90
2018-05-12T22:37:48.288Z,16.90
2018-05-12T22:40:15.733Z,16.90
2018-05-12T22:42:43.205Z,16.90
2018-05-12T22:45:10.657Z,16.90
2018-05-12T22:47:38.130Z,16.90
2018-05-12T22:50:05.564Z,16.90
2018-05-12T22:52:33.112Z,16.90
2018-05-12T22:55:00.580Z,16.90
2018-05-12T22:57:28.017Z,16.90
2018-05-12T22:59:55.472Z,16.90
2018-05-12T23:02:22.914Z,16.90
2018-05-12T23:04:51.141Z,16.80
2018-05-12T23:07:18.692Z,16.80
2018-05-12T23:09:46.148Z,16.80
2018-05-12T23:12:13.598Z,16.80
2018-05-12T23:14:41.057Z,16.70
2018-05-12T23:17:08.497Z,16.70
2018-05-12T23:19:35.959Z,16.70
2018-05-12T23:22:03.415Z,16.70
2018-05-12T23:24:30.881Z,16.60
2018-05-12T23:26:58.360Z,16.50
2018-05-12T23:29:25.900Z,16.50
2018-05-12T23:31:53.352Z,16.50
2018-05-12T23:34:20.789Z,16.40
2018-05-12T23:36:48.268Z,16.40
2018-05-12T23:39:15.728Z,16.40
2018-05-12T23:41:43.289Z,16.40
2018-05-12T23:44:10.748Z,16.40
2018-05-12T23:46:38.208Z,16.40
2018-05-12T23:49:05.657Z,16.40
2018-05-12T23:51:33.137Z,16.40
2018-05-12T23:54:00.571Z,16.30
2018-05-12T23:56:28.102Z,16.30
2018-05-12T23:58:55.696Z,16.30
